createdAt,value
2022-09-30T00:00:56.984Z,100.00
2022-09-30T00:03:24.353Z,100.00
2022-09-30T00:06:07.628Z,100.00
2022-09-30T00:08:36.861Z,100.00
2022-09-30T00:11:13.698Z,100.00
2022-09-30T00:13:40.947Z,100.00
2022-09-30T00:16:09.787Z,100.00
2022-09-30T00:18:37.045Z,100.00
2022-09-30T00:21:04.322Z,100.00
2022-09-30T00:23:31.708Z,100.00
2022-09-30T00:26:03.790Z,100.00
2022-09-30T00:28:31.152Z,100.00
2022-09-30T00:31:03.032Z,100.00
2022-09-30T00:33:29.785Z,100.00
2022-09-30T00:35:56.715Z,100.00
2022-09-30T00:38:23.443Z,100.00
2022-09-30T00:40:51.649Z,100.00
2022-09-30T00:43:38.767Z,100.00
2022-09-30T00:46:06.346Z,100.00
2022-09-30T00:48:39.130Z,100.00
2022-09-30T00:51:07.243Z,100.00
2022-09-30T00:53:43.971Z,100.00
2022-09-30T00:56:19.317Z,100.00
2022-09-30T00:59:01.904Z,100.00
2022-09-30T01:01:40.269Z,100.00
2022-09-30T01:04:17.786Z,100.00
2022-09-30T01:06:52.803Z,100.00
2022-09-30T01:09:26.543Z,100.00
2022-09-30T01:11:55.432Z,100.00
2022-09-30T01:14:29.848Z,100.00
2022-09-30T01:17:23.289Z,100.00
2022-09-30T01:19:58.214Z,100.00
2022-09-30T01:22:41.911Z,100.00
2022-09-30T01:25:47.949Z,100.00
2022-09-30T01:29:11.115Z,100.00
2022-09-30T01:32:17.336Z,100.00
2022-09-30T01:34:55.891Z,100.00
2022-09-30T01:37:53.595Z,100.00
2022-09-30T01:40:51.413Z,100.00
2022-09-30T01:43:39.971Z,100.00
2022-09-30T01:46:28.092Z,100.00
2022-09-30T01:49:03.222Z,100.00
2022-09-30T01:51:47.850Z,100.00
2022-09-30T01:54:33.301Z,100.00
2022-09-30T01:57:18.997Z,100.00
2022-09-30T01:59:56.193Z,100.00
2022-09-30T02:02:28.855Z,100.00
2022-09-30T02:05:06.019Z,100.00
2022-09-30T02:07:38.954Z,100.00
2022-09-30T02:10:15.074Z,100.00
2022-09-30T02:12:50.917Z,100.00
2022-09-30T02:15:39.675Z,100.00
2022-09-30T02:18:21.166Z,100.00
2022-09-30T02:20:57.121Z,100.00
2022-09-30T02:23:30.306Z,100.00
2022-09-30T02:26:24.313Z,100.00
2022-09-30T02:28:59.633Z,100.00
2022-09-30T02:31:29.267Z,100.00
2022-09-30T02:34:24.962Z,100.00
2022-09-30T02:37:01.140Z,100.00
2022-09-30T02:39:40.988Z,100.00
2022-09-30T02:42:19.175Z,100.00
2022-09-30T02:44:49.051Z,100.00
2022-09-30T02:47:26.911Z,100.00
2022-09-30T02:50:07.110Z,100.00
2022-09-30T02:53:01.757Z,100.00
2022-09-30T02:55:52.610Z,100.00
2022-09-30T02:58:22.532Z,100.00
2022-09-30T03:00:50.333Z,100.00
2022-09-30T03:03:25.352Z,100.00
2022-09-30T03:05:52.514Z,100.00
2022-09-30T03:08:19.504Z,100.00
2022-09-30T03:10:50.951Z,100.00
2022-09-30T03:13:32.893Z,100.00
2022-09-30T03:16:05.620Z,100.00
2022-09-30T03:18:57.499Z,100.00
2022-09-30T03:21:39.209Z,100.00
2022-09-30T03:24:29.232Z,100.00
2022-09-30T03:27:14.798Z,100.00
2022-09-30T03:29:56.475Z,100.00
2022-09-30T03:32:48.811Z,100.00
2022-09-30T03:35:27.802Z,100.00
2022-09-30T03:38:18.446Z,100.00
2022-09-30T03:41:08.456Z,100.00
2022-09-30T03:43:41.190Z,100.00
2022-09-30T03:46:18.910Z,100.00
2022-09-30T03:48:48.342Z,100.00
2022-09-30T03:51:15.285Z,100.00
2022-09-30T03:53:44.234Z,100.00
2022-09-30T03:56:10.867Z,100.00
2022-09-30T03:58:42.692Z,100.00
2022-09-30T04:01:19.290Z,100.00
2022-09-30T04:03:46.787Z,100.00
2022-09-30T04:06:14.849Z,100.00
2022-09-30T04:08:41.600Z,100.00
2022-09-30T04:11:08.317Z,100.00
2022-09-30T04:13:35.014Z,100.00
2022-09-30T04:16:02.192Z,100.00
2022-09-30T04:18:30.551Z,100.00
2022-09-30T04:21:00.721Z,100.00
2022-09-30T04:23:27.462Z,100.00
2022-09-30T04:25:55.306Z,100.00
2022-09-30T04:28:23.182Z,100.00
2022-09-30T04:30:49.963Z,100.00
2022-09-30T04:33:16.837Z,100.00
2022-09-30T04:35:43.504Z,100.00
2022-09-30T04:38:10.121Z,100.00
2022-09-30T04:40:38.477Z,100.00
2022-09-30T04:43:06.324Z,100.00
2022-09-30T04:45:33.195Z,100.00
2022-09-30T04:47:59.956Z,100.00
2022-09-30T04:50:26.893Z,100.00
2022-09-30T04:52:55.930Z,100.00
2022-09-30T04:55:23.519Z,100.00
2022-09-30T04:57:50.531Z,100.00
2022-09-30T05:00:17.369Z,100.00
2022-09-30T05:02:44.979Z,100.00
2022-09-30T05:05:11.871Z,100.00
2022-09-30T05:07:38.521Z,100.00
2022-09-30T05:10:05.829Z,100.00
2022-09-30T05:12:32.516Z,100.00
2022-09-30T05:14:59.178Z,100.00
2022-09-30T05:17:26.061Z,100.00
2022-09-30T05:19:52.659Z,100.00
2022-09-30T05:22:19.295Z,100.00
2022-09-30T05:24:45.930Z,100.00
2022-09-30T05:27:12.640Z,100.00
2022-09-30T05:29:39.842Z,100.00
2022-09-30T05:32:07.839Z,100.00
2022-09-30T05:34:34.455Z,100.00
2022-09-30T05:37:01.464Z,100.00
2022-09-30T05:39:29.164Z,100.00
2022-09-30T05:41:59.662Z,100.00
2022-09-30T05:44:26.420Z,100.00
2022-09-30T05:46:53.621Z,100.00
2022-09-30T05:49:20.375Z,100.00
2022-09-30T05:51:47.781Z,100.00
2022-09-30T05:54:14.449Z,100.00
2022-09-30T05:56:41.212Z,100.00
2022-09-30T05:59:07.961Z,100.00
2022-09-30T06:01:34.725Z,100.00
2022-09-30T06:04:01.699Z,100.00
2022-09-30T06:06:28.802Z,100.00
2022-09-30T06:08:55.604Z,100.00
2022-09-30T06:11:25.153Z,100.00
2022-09-30T06:13:52.392Z,100.00
2022-09-30T06:16:19.383Z,100.00
2022-09-30T06:18:46.120Z,100.00
2022-09-30T06:21:14.498Z,100.00
2022-09-30T06:23:41.638Z,100.00
2022-09-30T06:26:11.659Z,100.00
2022-09-30T06:28:38.667Z,100.00
2022-09-30T06:31:06.737Z,100.00
2022-09-30T06:33:33.468Z,100.00
2022-09-30T06:36:04.320Z,100.00
2022-09-30T06:38:32.311Z,100.00
2022-09-30T06:41:02.146Z,100.00
2022-09-30T06:43:28.871Z,100.00
2022-09-30T06:46:06.687Z,100.00
2022-09-30T06:48:39.054Z,100.00
2022-09-30T06:51:09.931Z,100.00
2022-09-30T06:53:38.113Z,100.00
2022-09-30T06:56:05.106Z,100.00
2022-09-30T06:58:31.962Z,100.00
2022-09-30T07:01:04.413Z,100.00
2022-09-30T07:03:33.689Z,100.00
2022-09-30T07:06:02.750Z,100.00
2022-09-30T07:08:31.741Z,100.00
2022-09-30T07:11:04.607Z,100.00
2022-09-30T07:13:33.091Z,100.00
2022-09-30T07:15:59.920Z,100.00
2022-09-30T07:18:27.350Z,100.00
2022-09-30T07:20:55.622Z,100.00
2022-09-30T07:23:26.878Z,100.00
2022-09-30T07:25:57.192Z,100.00
2022-09-30T07:28:27.995Z,100.00
2022-09-30T07:31:19.901Z,100.00
2022-09-30T07:33:46.309Z,100.00
2022-09-30T07:36:18.642Z,100.00
2022-09-30T07:38:49.908Z,100.00
2022-09-30T07:41:21.920Z,100.00
2022-09-30T07:43:49.078Z,100.00
2022-09-30T07:46:24.597Z,100.00
2022-09-30T07:48:54.968Z,100.00
2022-09-30T07:51:25.230Z,100.00
2022-09-30T07:53:55.896Z,100.00
2022-09-30T07:56:23.992Z,100.00
2022-09-30T07:58:57.622Z,100.00
2022-09-30T08:01:24.997Z,100.00
2022-09-30T08:03:57.173Z,100.00
2022-09-30T08:06:24.600Z,100.00
2022-09-30T08:08:53.546Z,100.00
2022-09-30T08:11:20.900Z,100.00
2022-09-30T08:13:55.862Z,100.00
2022-09-30T08:16:24.713Z,100.00
2022-09-30T08:19:00.527Z,100.00
2022-09-30T08:21:28.846Z,100.00
2022-09-30T08:23:57.014Z,100.00
2022-09-30T08:26:24.746Z,100.00
2022-09-30T08:28:51.447Z,100.00
2022-09-30T08:31:22.302Z,100.00
2022-09-30T08:33:49.259Z,100.00
2022-09-30T08:36:18.473Z,100.00
2022-09-30T08:38:45.544Z,100.00
2022-09-30T08:41:22.450Z,100.00
2022-09-30T08:44:04.381Z,100.00
2022-09-30T08:46:44.403Z,100.00
2022-09-30T08:49:43.248Z,100.00
2022-09-30T08:52:24.645Z,100.00
2022-09-30T08:55:05.898Z,100.00
2022-09-30T08:57:47.384Z,100.00
2022-09-30T09:00:17.240Z,100.00
2022-09-30T09:02:55.966Z,100.00
2022-09-30T09:05:50.038Z,100.00
2022-09-30T09:08:37.794Z,100.00
2022-09-30T09:11:21.185Z,100.00
2022-09-30T09:14:14.011Z,100.00
2022-09-30T09:17:10.635Z,100.00
2022-09-30T09:19:53.512Z,100.00
2022-09-30T09:22:24.597Z,100.00
2022-09-30T09:24:53.593Z,100.00
2022-09-30T09:27:24.129Z,100.00
2022-09-30T09:30:01.872Z,100.00
2022-09-30T09:32:29.878Z,100.00
2022-09-30T09:35:02.497Z,100.00
2022-09-30T09:38:03.504Z,100.00
2022-09-30T09:40:57.299Z,100.00
2022-09-30T09:43:43.929Z,100.00
2022-09-30T09:46:25.759Z,100.00
2022-09-30T09:49:23.638Z,100.00
2022-09-30T09:51:59.243Z,100.00
2022-09-30T09:54:31.322Z,100.00
2022-09-30T09:57:11.786Z,100.00
2022-09-30T09:59:55.080Z,100.00
2022-09-30T10:02:24.251Z,100.00
2022-09-30T10:05:00.201Z,100.00
2022-09-30T10:07:32.735Z,100.00
2022-09-30T10:10:08.639Z,100.00
2022-09-30T10:12:35.662Z,100.00
2022-09-30T10:15:19.878Z,100.00
2022-09-30T10:17:55.586Z,100.00
2022-09-30T10:20:32.045Z,100.00
2022-09-30T10:23:20.611Z,100.00
2022-09-30T10:25:59.295Z,100.00
2022-09-30T10:28:28.907Z,100.00
2022-09-30T10:31:02.113Z,100.00
2022-09-30T10:33:33.444Z,100.00
2022-09-30T10:36:08.631Z,100.00
2022-09-30T10:38:37.304Z,100.00
2022-09-30T10:41:05.480Z,100.00
2022-09-30T10:43:53.330Z,100.00
2022-09-30T10:46:35.370Z,100.00
2022-09-30T10:49:10.672Z,100.00
2022-09-30T10:51:37.799Z,100.00
2022-09-30T10:54:06.403Z,100.00
2022-09-30T10:56:45.740Z,100.00
2022-09-30T10:59:31.627Z,100.00
2022-09-30T11:02:10.769Z,100.00
2022-09-30T11:04:43.442Z,100.00
2022-09-30T11:07:26.797Z,100.00
2022-09-30T11:10:14.555Z,100.00
2022-09-30T11:13:02.862Z,100.00
2022-09-30T11:15:37.420Z,100.00
2022-09-30T11:18:23.831Z,100.00
2022-09-30T11:21:05.982Z,100.00
2022-09-30T11:23:40.933Z,100.00
2022-09-30T11:26:33.454Z,100.00
2022-09-30T11:29:26.519Z,100.00
2022-09-30T11:32:22.574Z,100.00
2022-09-30T11:35:11.144Z,100.00
2022-09-30T11:37:55.831Z,100.00
2022-09-30T11:40:30.832Z,100.00
2022-09-30T11:43:07.402Z,100.00
2022-09-30T11:45:44.114Z,100.00
2022-09-30T11:48:46.436Z,100.00
2022-09-30T11:51:30.631Z,100.00
2022-09-30T11:54:11.976Z,97.04
2022-09-30T11:57:08.028Z,97.60
2022-09-30T11:59:43.773Z,96.66
2022-09-30T12:02:39.040Z,95.83
2022-09-30T12:05:35.933Z,94.99
2022-09-30T12:08:20.083Z,98.08
2022-09-30T12:11:13.761Z,97.22
2022-09-30T12:13:45.534Z,95.66
2022-09-30T12:16:19.588Z,98.25
2022-09-30T12:19:20.605Z,95.97
2022-09-30T12:21:56.222Z,94.91
2022-09-30T12:24:38.673Z,95.32
2022-09-30T12:27:15.468Z,92.13
2022-09-30T12:30:17.957Z,93.55
2022-09-30T12:33:17.993Z,90.79
2022-09-30T12:36:07.940Z,90.48
2022-09-30T12:38:58.538Z,90.80
2022-09-30T12:41:47.085Z,91.66
2022-09-30T12:44:56.348Z,92.48
2022-09-30T12:47:38.890Z,93.15
2022-09-30T12:50:08.382Z,93.90
2022-09-30T12:52:36.534Z,94.60
2022-09-30T12:55:14.120Z,89.67
2022-09-30T12:57:43.333Z,85.83
2022-09-30T13:00:17.757Z,86.75
2022-09-30T13:02:48.727Z,86.61
2022-09-30T13:05:31.117Z,87.00
2022-09-30T13:08:04.784Z,86.97
2022-09-30T13:10:37.633Z,88.84
2022-09-30T13:13:10.130Z,86.91
2022-09-30T13:15:39.943Z,85.78
2022-09-30T13:18:28.085Z,85.19
2022-09-30T13:21:18.227Z,80.99
2022-09-30T13:23:56.631Z,82.06
2022-09-30T13:26:29.524Z,83.92
2022-09-30T13:28:59.587Z,86.47
2022-09-30T13:31:27.289Z,88.18
2022-09-30T13:34:03.001Z,91.56
2022-09-30T13:36:40.783Z,92.08
2022-09-30T13:39:30.116Z,90.64
2022-09-30T13:42:06.787Z,89.78
2022-09-30T13:44:56.633Z,88.96
2022-09-30T13:47:39.515Z,89.16
2022-09-30T13:50:31.679Z,88.99
2022-09-30T13:53:06.878Z,89.30
2022-09-30T13:55:41.767Z,89.00
2022-09-30T13:58:30.862Z,89.25
2022-09-30T14:01:06.586Z,90.61
2022-09-30T14:04:04.504Z,90.77
2022-09-30T14:06:56.733Z,90.84
2022-09-30T14:09:32.719Z,91.07
2022-09-30T14:12:06.322Z,91.22
2022-09-30T14:15:14.302Z,92.41
2022-09-30T14:18:05.528Z,92.41
2022-09-30T14:20:54.221Z,91.86
2022-09-30T14:23:21.771Z,92.01
2022-09-30T14:26:15.347Z,90.60
2022-09-30T14:29:03.956Z,89.81
2022-09-30T14:31:34.004Z,88.70
2022-09-30T14:34:01.986Z,89.00
2022-09-30T14:36:28.795Z,89.83
2022-09-30T14:39:01.256Z,89.55
2022-09-30T14:41:29.707Z,89.25
2022-09-30T14:44:05.032Z,89.40
2022-09-30T14:46:39.173Z,89.76
2022-09-30T14:49:10.159Z,90.65
2022-09-30T14:51:47.164Z,91.06
2022-09-30T14:54:29.658Z,92.77
2022-09-30T14:56:58.467Z,93.26
2022-09-30T14:59:28.845Z,93.14
2022-09-30T15:02:00.683Z,93.46
2022-09-30T15:04:35.116Z,93.89
2022-09-30T15:07:04.278Z,94.06
2022-09-30T15:09:43.560Z,93.37
2022-09-30T15:12:20.134Z,94.84
2022-09-30T15:14:55.812Z,95.59
2022-09-30T15:17:29.376Z,96.30
2022-09-30T15:19:59.538Z,96.03
2022-09-30T15:22:29.001Z,95.58
2022-09-30T15:24:57.948Z,95.45
2022-09-30T15:27:34.348Z,96.21
2022-09-30T15:30:05.384Z,96.66
2022-09-30T15:32:36.637Z,96.99
2022-09-30T15:35:11.634Z,97.96
2022-09-30T15:37:38.483Z,98.32
2022-09-30T15:40:33.154Z,98.37
2022-09-30T15:43:03.298Z,99.10
2022-09-30T15:45:39.477Z,99.43
2022-09-30T15:48:13.451Z,100.00
2022-09-30T15:50:49.068Z,100.00
2022-09-30T15:53:24.854Z,100.00
2022-09-30T15:55:58.542Z,100.00
2022-09-30T15:58:38.102Z,100.00
2022-09-30T16:01:21.704Z,100.00
2022-09-30T16:03:59.725Z,100.00
2022-09-30T16:06:35.067Z,100.00
2022-09-30T16:09:08.706Z,100.00
2022-09-30T16:11:41.872Z,100.00
2022-09-30T16:14:16.822Z,100.00
2022-09-30T16:16:50.667Z,100.00
2022-09-30T16:19:19.572Z,100.00
2022-09-30T16:21:51.029Z,100.00
2022-09-30T16:24:21.959Z,100.00
2022-09-30T16:26:50.236Z,100.00
2022-09-30T16:29:18.079Z,100.00
2022-09-30T16:31:46.982Z,100.00
2022-09-30T16:34:28.563Z,100.00
2022-09-30T16:37:05.903Z,100.00
2022-09-30T16:39:32.591Z,100.00
2022-09-30T16:41:59.269Z,100.00
2022-09-30T16:44:26.059Z,100.00
2022-09-30T16:46:52.806Z,100.00
2022-09-30T16:49:19.899Z,100.00
2022-09-30T16:51:47.059Z,100.00
2022-09-30T16:54:13.793Z,100.00
2022-09-30T16:56:40.468Z,100.00
2022-09-30T16:59:13.873Z,100.00
2022-09-30T17:01:41.448Z,100.00
2022-09-30T17:04:11.037Z,100.00
2022-09-30T17:06:40.824Z,100.00
2022-09-30T17:09:07.493Z,100.00
2022-09-30T17:11:35.922Z,100.00
2022-09-30T17:14:04.968Z,100.00
2022-09-30T17:16:32.500Z,100.00
2022-09-30T17:18:59.606Z,100.00
2022-09-30T17:21:27.361Z,100.00
2022-09-30T17:23:55.150Z,100.00
2022-09-30T17:26:22.399Z,100.00
2022-09-30T17:28:49.092Z,100.00
2022-09-30T17:31:15.905Z,100.00
2022-09-30T17:33:42.936Z,100.00
2022-09-30T17:36:12.439Z,100.00
2022-09-30T17:38:39.976Z,100.00
2022-09-30T17:41:26.319Z,100.00
2022-09-30T17:43:53.000Z,100.00
2022-09-30T17:46:23.209Z,100.00
2022-09-30T17:48:51.374Z,100.00
2022-09-30T17:51:18.247Z,100.00
2022-09-30T17:53:45.389Z,100.00
2022-09-30T17:56:19.592Z,100.00
2022-09-30T17:58:48.989Z,100.00
2022-09-30T18:01:18.281Z,100.00
2022-09-30T18:03:47.893Z,100.00
2022-09-30T18:06:14.677Z,100.00
2022-09-30T18:08:41.571Z,100.00
2022-09-30T18:11:08.638Z,100.00
2022-09-30T18:13:35.368Z,100.00
2022-09-30T18:16:06.337Z,100.00
2022-09-30T18:18:35.160Z,100.00
2022-09-30T18:21:02.008Z,100.00
2022-09-30T18:23:28.835Z,100.00
2022-09-30T18:25:56.328Z,100.00
2022-09-30T18:28:23.315Z,100.00
2022-09-30T18:30:50.179Z,100.00
2022-09-30T18:33:17.505Z,100.00
2022-09-30T18:35:44.588Z,100.00
2022-09-30T18:38:12.871Z,100.00
2022-09-30T18:40:43.367Z,100.00
2022-09-30T18:43:14.080Z,100.00
2022-09-30T18:45:43.451Z,100.00
2022-09-30T18:48:11.134Z,100.00
2022-09-30T18:50:38.835Z,100.00
2022-09-30T18:53:09.842Z,100.00
2022-09-30T18:55:38.302Z,100.00
2022-09-30T18:58:05.434Z,100.00
2022-09-30T19:00:32.641Z,100.00
2022-09-30T19:02:59.552Z,100.00
2022-09-30T19:05:26.513Z,100.00
2022-09-30T19:07:53.666Z,100.00
2022-09-30T19:10:20.566Z,100.00
2022-09-30T19:12:47.609Z,100.00
2022-09-30T19:15:16.196Z,100.00
2022-09-30T19:17:44.019Z,100.00
2022-09-30T19:20:12.072Z,100.00
2022-09-30T19:22:38.792Z,100.00
2022-09-30T19:25:14.116Z,100.00
2022-09-30T19:27:42.041Z,100.00
2022-09-30T19:30:11.622Z,100.00
2022-09-30T19:32:39.106Z,100.00
2022-09-30T19:35:10.274Z,100.00
2022-09-30T19:37:38.187Z,100.00
2022-09-30T19:40:19.897Z,100.00
2022-09-30T19:42:49.646Z,100.00
2022-09-30T19:45:16.867Z,100.00
2022-09-30T19:47:44.273Z,100.00
2022-09-30T19:50:11.102Z,100.00
2022-09-30T19:52:47.347Z,100.00
2022-09-30T19:55:17.984Z,100.00
2022-09-30T19:57:44.822Z,100.00
2022-09-30T20:00:13.076Z,100.00
2022-09-30T20:02:39.926Z,100.00
2022-09-30T20:05:07.626Z,100.00
2022-09-30T20:07:35.173Z,100.00
2022-09-30T20:10:02.341Z,100.00
2022-09-30T20:12:29.391Z,100.00
2022-09-30T20:15:14.812Z,100.00
2022-09-30T20:17:41.619Z,100.00
2022-09-30T20:20:27.754Z,100.00
2022-09-30T20:22:54.597Z,100.00
2022-09-30T20:25:21.537Z,100.00
2022-09-30T20:27:52.172Z,100.00
2022-09-30T20:30:20.274Z,100.00
2022-09-30T20:32:47.269Z,100.00
2022-09-30T20:35:14.167Z,100.00
2022-09-30T20:37:42.298Z,100.00
2022-09-30T20:40:09.819Z,100.00
2022-09-30T20:42:38.373Z,100.00
2022-09-30T20:45:10.609Z,100.00
2022-09-30T20:47:39.081Z,100.00
2022-09-30T20:50:10.429Z,100.00
2022-09-30T20:52:37.306Z,100.00
2022-09-30T20:55:04.575Z,100.00
2022-09-30T20:57:32.126Z,100.00
2022-09-30T21:00:00.122Z,100.00
2022-09-30T21:02:29.234Z,100.00
2022-09-30T21:04:59.991Z,100.00
2022-09-30T21:07:30.149Z,100.00
2022-09-30T21:09:57.780Z,100.00
2022-09-30T21:12:24.791Z,100.00
2022-09-30T21:14:51.451Z,100.00
2022-09-30T21:17:18.182Z,100.00
2022-09-30T21:19:44.977Z,100.00
2022-09-30T21:22:11.766Z,100.00
2022-09-30T21:24:38.410Z,100.00
2022-09-30T21:27:06.274Z,100.00
2022-09-30T21:29:33.371Z,100.00
2022-09-30T21:32:00.936Z,100.00
2022-09-30T21:34:28.311Z,100.00
2022-09-30T21:36:55.253Z,100.00
2022-09-30T21:39:22.314Z,100.00
2022-09-30T21:41:49.107Z,100.00
2022-09-30T21:44:16.778Z,100.00
2022-09-30T21:46:48.146Z,100.00
2022-09-30T21:49:18.938Z,100.00
2022-09-30T21:51:46.859Z,100.00
2022-09-30T21:54:15.045Z,100.00
2022-09-30T21:56:43.068Z,100.00
2022-09-30T21:59:13.865Z,100.00
2022-09-30T22:01:41.083Z,100.00
2022-09-30T22:04:08.736Z,100.00
2022-09-30T22:06:36.118Z,100.00
2022-09-30T22:09:03.214Z,100.00
2022-09-30T22:11:31.257Z,100.00
2022-09-30T22:14:00.136Z,100.00
2022-09-30T22:16:29.958Z,100.00
2022-09-30T22:19:00.747Z,100.00
2022-09-30T22:21:33.271Z,100.00
2022-09-30T22:24:01.666Z,100.00
2022-09-30T22:26:29.778Z,100.00
2022-09-30T22:29:06.884Z,100.00
2022-09-30T22:31:34.388Z,100.00
2022-09-30T22:34:22.230Z,100.00
2022-09-30T22:37:07.528Z,100.00
2022-09-30T22:39:35.043Z,100.00
2022-09-30T22:42:02.247Z,100.00
2022-09-30T22:44:32.958Z,100.00
2022-09-30T22:47:00.315Z,100.00
2022-09-30T22:49:28.471Z,100.00
2022-09-30T22:51:56.947Z,100.00
2022-09-30T22:54:25.808Z,100.00
2022-09-30T22:56:54.889Z,100.00
2022-09-30T22:59:23.464Z,100.00
2022-09-30T23:01:50.476Z,100.00
2022-09-30T23:04:18.032Z,100.00
2022-09-30T23:06:48.345Z,100.00
2022-09-30T23:09:15.591Z,100.00
2022-09-30T23:11:42.514Z,100.00
2022-09-30T23:14:09.470Z,100.00
2022-09-30T23:16:36.555Z,100.00
2022-09-30T23:19:03.905Z,100.00
2022-09-30T23:21:31.319Z,100.00
2022-09-30T23:23:58.409Z,100.00
2022-09-30T23:26:28.423Z,100.00
2022-09-30T23:28:59.367Z,100.00
2022-09-30T23:31:26.803Z,100.00
2022-09-30T23:33:56.351Z,100.00
2022-09-30T23:36:32.215Z,100.00
2022-09-30T23:39:09.238Z,100.00
2022-09-30T23:41:36.439Z,100.00
2022-09-30T23:44:04.411Z,100.00
2022-09-30T23:46:31.690Z,100.00
2022-09-30T23:48:58.631Z,100.00
2022-09-30T23:51:25.393Z,100.00
2022-09-30T23:53:52.276Z,100.00
2022-09-30T23:56:19.660Z,100.00
2022-09-30T23:58:47.280Z,100.00
